Pagina principală
METAR-TAF:

METAR-TAF

Aeroporturi :

Bartlesville, Oklahoma, Statele Unite ale Americii

Latitudine: 36-46-06N, longitudine: 096-01-34W, elevație: 217 m

Observații meteo curente

Raportul a fost făcut în urmă cu 17 de minute, la 00:53 UTC
Vânt 5 kt de la Nord
Temperatură 25°C
Umiditate 57%
Presiune 1007 hPa
Vizibilitate: 16.1 km
Cer senin

METAR: KBVO 220053Z AUTO 36005KT 10SM CLR 25/16 A2974 RMK AO2 SLP059 T02500161

Ora: 20:10 (01:10 UTC)

Prognoză

Raportul a fost făcut în urmă cu 1 oră și 45 de minute, la 23:25 UTC
Prognoză valabilă de la 22 ora 00 UTC la 22 ora 24 UTC
Vânt 6 kt din direcții variabile
Vizibilitate: 10 km
Cer senin
De la 22 ora 0900 UTC
Vânt 9 kt de la Nord
Vizibilitate: 10 km
Nori fragmentați la o înălțime de 5000 picior
Nori fragmentați la o înălțime de 10000 picior

TAF: KBVO 212325Z 2200/2224 VRB06KT P6SM SKC FM220900 36009KT P6SM BKN050 BKN100

Observații și prognoze meteo pentru peste 4.000 de aeroporturi (rapoarte METAR și TAF).

Stațiile disponibile sunt reprezentate pe hartă prin puncte galbene și roșii.

Țineți indicatorul mouse-ului pe punctul dorit pentru a vedea denumirea stației.

Apoi, faceți clic pentru a vedea observațiile și prognozele meteorologice.

Pentru a schimba harta: Pentru mărire, faceți clic pe butoanele verzi cu cruce neagră; pentru micșorare, pe butonul verde cu o liniuță; pentru hărți învecinate, pe săgețile verzi.


METAR-TAF: